sensor_id;sensor_type;location;lat;lon;timestamp;P1;durP1;ratioP1;P2;durP2;ratioP2
55784;SDS011;41709;52.536;5.688;2023-01-19T00:00:57;2.25;;;0.95;;
55784;SDS011;41709;52.536;5.688;2023-01-19T00:03:22;2.17;;;0.70;;
55784;SDS011;41709;52.536;5.688;2023-01-19T00:05:48;6.05;;;1.45;;
55784;SDS011;41709;52.536;5.688;2023-01-19T00:08:14;1.80;;;0.60;;
55784;SDS011;41709;52.536;5.688;2023-01-19T00:10:40;2.22;;;0.73;;
55784;SDS011;41709;52.536;5.688;2023-01-19T00:13:07;3.63;;;1.35;;
55784;SDS011;41709;52.536;5.688;2023-01-19T00:15:32;2.33;;;0.82;;
55784;SDS011;41709;52.536;5.688;2023-01-19T00:17:58;1.95;;;1.35;;
55784;SDS011;41709;52.536;5.688;2023-01-19T00:20:24;0.93;;;0.85;;
55784;SDS011;41709;52.536;5.688;2023-01-19T00:22:49;2.53;;;1.08;;
55784;SDS011;41709;52.536;5.688;2023-01-19T00:25:16;1.90;;;1.10;;
55784;SDS011;41709;52.536;5.688;2023-01-19T00:27:42;2.08;;;0.90;;
55784;SDS011;41709;52.536;5.688;2023-01-19T00:30:13;4.00;;;0.90;;
55784;SDS011;41709;52.536;5.688;2023-01-19T00:32:41;3.47;;;0.80;;
55784;SDS011;41709;52.536;5.688;2023-01-19T00:35:07;2.10;;;0.98;;
55784;SDS011;41709;52.536;5.688;2023-01-19T00:37:33;4.10;;;1.02;;
55784;SDS011;41709;52.536;5.688;2023-01-19T00:39:58;1.13;;;0.68;;
55784;SDS011;41709;52.536;5.688;2023-01-19T00:42:24;4.57;;;1.10;;
55784;SDS011;41709;52.536;5.688;2023-01-19T00:45:08;1.15;;;0.80;;
55784;SDS011;41709;52.536;5.688;2023-01-19T00:47:35;4.13;;;1.00;;
55784;SDS011;41709;52.536;5.688;2023-01-19T00:50:03;3.28;;;0.75;;
55784;SDS011;41709;52.536;5.688;2023-01-19T00:52:29;4.25;;;0.80;;
55784;SDS011;41709;52.536;5.688;2023-01-19T00:54:55;4.45;;;1.67;;
55784;SDS011;41709;52.536;5.688;2023-01-19T00:57:20;2.17;;;0.90;;
55784;SDS011;41709;52.536;5.688;2023-01-19T00:59:46;3.45;;;0.80;;
55784;SDS011;41709;52.536;5.688;2023-01-19T01:02:12;1.98;;;0.70;;
55784;SDS011;41709;52.536;5.688;2023-01-19T01:04:37;3.10;;;0.80;;
55784;SDS011;41709;52.536;5.688;2023-01-19T01:07:03;2.03;;;0.80;;
55784;SDS011;41709;52.536;5.688;2023-01-19T01:09:29;2.58;;;0.82;;
55784;SDS011;41709;52.536;5.688;2023-01-19T01:11:54;4.53;;;0.70;;
55784;SDS011;41709;52.536;5.688;2023-01-19T01:14:20;3.45;;;0.60;;
55784;SDS011;41709;52.536;5.688;2023-01-19T01:16:47;3.92;;;0.70;;
55784;SDS011;41709;52.536;5.688;2023-01-19T01:19:13;2.35;;;0.57;;
55784;SDS011;41709;52.536;5.688;2023-01-19T01:21:39;3.03;;;0.63;;
55784;SDS011;41709;52.536;5.688;2023-01-19T01:24:04;5.25;;;0.50;;
55784;SDS011;41709;52.536;5.688;2023-01-19T01:26:30;4.75;;;0.50;;
55784;SDS011;41709;52.536;5.688;2023-01-19T01:28:56;6.97;;;0.70;;
55784;SDS011;41709;52.536;5.688;2023-01-19T01:31:22;3.47;;;0.82;;
55784;SDS011;41709;52.536;5.688;2023-01-19T01:33:47;3.78;;;0.57;;
55784;SDS011;41709;52.536;5.688;2023-01-19T01:36:13;3.63;;;1.35;;
55784;SDS011;41709;52.536;5.688;2023-01-19T01:38:39;3.30;;;0.60;;
55784;SDS011;41709;52.536;5.688;2023-01-19T01:41:05;5.43;;;0.40;;
55784;SDS011;41709;52.536;5.688;2023-01-19T01:43:45;6.22;;;1.15;;
55784;SDS011;41709;52.536;5.688;2023-01-19T01:46:17;6.00;;;0.65;;
55784;SDS011;41709;52.536;5.688;2023-01-19T01:48:45;1.90;;;0.43;;
55784;SDS011;41709;52.536;5.688;2023-01-19T01:51:28;3.50;;;0.40;;
55784;SDS011;41709;52.536;5.688;2023-01-19T01:54:08;4.05;;;0.47;;
55784;SDS011;41709;52.536;5.688;2023-01-19T01:56:38;2.60;;;0.40;;
55784;SDS011;41709;52.536;5.688;2023-01-19T01:59:12;0.57;;;0.20;;
55784;SDS011;41709;52.536;5.688;2023-01-19T02:01:49;4.40;;;0.85;;
55784;SDS011;41709;52.536;5.688;2023-01-19T02:04:43;2.67;;;0.52;;
55784;SDS011;41709;52.536;5.688;2023-01-19T02:07:13;2.58;;;0.40;;
55784;SDS011;41709;52.536;5.688;2023-01-19T02:10:04;2.42;;;0.30;;
55784;SDS011;41709;52.536;5.688;2023-01-19T02:12:49;2.47;;;0.40;;
55784;SDS011;41709;52.536;5.688;2023-01-19T02:15:33;0.73;;;0.20;;
55784;SDS011;41709;52.536;5.688;2023-01-19T02:17:59;1.15;;;0.40;;
55784;SDS011;41709;52.536;5.688;2023-01-19T02:20:25;1.38;;;0.22;;
55784;SDS011;41709;52.536;5.688;2023-01-19T02:22:54;0.93;;;0.20;;
55784;SDS011;41709;52.536;5.688;2023-01-19T02:25:23;2.30;;;0.57;;
55784;SDS011;41709;52.536;5.688;2023-01-19T02:27:50;3.15;;;1.17;;
55784;SDS011;41709;52.536;5.688;2023-01-19T02:30:16;0.55;;;0.13;;
55784;SDS011;41709;52.536;5.688;2023-01-19T02:32:43;2.03;;;0.20;;
55784;SDS011;41709;52.536;5.688;2023-01-19T02:35:09;2.28;;;0.38;;
55784;SDS011;41709;52.536;5.688;2023-01-19T02:37:35;8.68;;;1.08;;
55784;SDS011;41709;52.536;5.688;2023-01-19T02:40:04;4.60;;;1.10;;
55784;SDS011;41709;52.536;5.688;2023-01-19T02:45:07;3.45;;;0.40;;
55784;SDS011;41709;52.536;5.688;2023-01-19T02:47:40;5.90;;;0.68;;
55784;SDS011;41709;52.536;5.688;2023-01-19T02:50:34;3.72;;;0.60;;
55784;SDS011;41709;52.536;5.688;2023-01-19T02:53:19;7.68;;;0.70;;
55784;SDS011;41709;52.536;5.688;2023-01-19T02:55:55;5.43;;;0.90;;
55784;SDS011;41709;52.536;5.688;2023-01-19T02:58:44;7.63;;;0.90;;
55784;SDS011;41709;52.536;5.688;2023-01-19T03:01:27;5.03;;;0.60;;
55784;SDS011;41709;52.536;5.688;2023-01-19T03:03:57;5.13;;;0.60;;
55784;SDS011;41709;52.536;5.688;2023-01-19T03:06:47;10.80;;;0.80;;
55784;SDS011;41709;52.536;5.688;2023-01-19T03:09:30;11.05;;;0.98;;
55784;SDS011;41709;52.536;5.688;2023-01-19T03:12:13;11.52;;;1.05;;
55784;SDS011;41709;52.536;5.688;2023-01-19T03:14:49;7.22;;;1.10;;
55784;SDS011;41709;52.536;5.688;2023-01-19T03:17:20;17.08;;;1.35;;
55784;SDS011;41709;52.536;5.688;2023-01-19T03:19:47;6.35;;;0.75;;
55784;SDS011;41709;52.536;5.688;2023-01-19T03:22:18;15.75;;;1.40;;
55784;SDS011;41709;52.536;5.688;2023-01-19T03:24:51;13.07;;;2.05;;
55784;SDS011;41709;52.536;5.688;2023-01-19T03:27:22;20.35;;;1.65;;
55784;SDS011;41709;52.536;5.688;2023-01-19T03:29:53;19.08;;;2.08;;
55784;SDS011;41709;52.536;5.688;2023-01-19T03:32:27;15.52;;;1.60;;
55784;SDS011;41709;52.536;5.688;2023-01-19T03:34:58;12.98;;;1.48;;
55784;SDS011;41709;52.536;5.688;2023-01-19T03:37:26;14.18;;;1.83;;
55784;SDS011;41709;52.536;5.688;2023-01-19T03:39:53;12.52;;;1.60;;
55784;SDS011;41709;52.536;5.688;2023-01-19T03:42:20;11.45;;;1.45;;
55784;SDS011;41709;52.536;5.688;2023-01-19T03:44:48;14.32;;;1.80;;
55784;SDS011;41709;52.536;5.688;2023-01-19T03:47:16;17.27;;;1.40;;
55784;SDS011;41709;52.536;5.688;2023-01-19T03:49:43;11.43;;;1.30;;
55784;SDS011;41709;52.536;5.688;2023-01-19T03:52:10;10.13;;;1.20;;
55784;SDS011;41709;52.536;5.688;2023-01-19T03:54:36;14.95;;;2.20;;
55784;SDS011;41709;52.536;5.688;2023-01-19T03:57:02;16.02;;;1.45;;
55784;SDS011;41709;52.536;5.688;2023-01-19T03:59:28;11.93;;;1.88;;
55784;SDS011;41709;52.536;5.688;2023-01-19T04:01:53;13.55;;;1.40;;
55784;SDS011;41709;52.536;5.688;2023-01-19T04:04:19;8.65;;;1.42;;
55784;SDS011;41709;52.536;5.688;2023-01-19T04:06:45;12.32;;;1.98;;
55784;SDS011;41709;52.536;5.688;2023-01-19T04:09:10;12.95;;;2.55;;
55784;SDS011;41709;52.536;5.688;2023-01-19T04:11:36;7.55;;;1.75;;
55784;SDS011;41709;52.536;5.688;2023-01-19T04:14:01;16.10;;;1.27;;
55784;SDS011;41709;52.536;5.688;2023-01-19T04:16:27;8.20;;;1.30;;
55784;SDS011;41709;52.536;5.688;2023-01-19T04:18:53;7.40;;;0.98;;
55784;SDS011;41709;52.536;5.688;2023-01-19T04:21:19;11.70;;;1.25;;
55784;SDS011;41709;52.536;5.688;2023-01-19T04:23:45;10.00;;;2.10;;
55784;SDS011;41709;52.536;5.688;2023-01-19T04:26:11;12.77;;;1.50;;
55784;SDS011;41709;52.536;5.688;2023-01-19T04:28:37;9.25;;;1.38;;
55784;SDS011;41709;52.536;5.688;2023-01-19T04:31:03;11.75;;;2.03;;
55784;SDS011;41709;52.536;5.688;2023-01-19T04:33:30;10.88;;;1.25;;
55784;SDS011;41709;52.536;5.688;2023-01-19T04:35:56;12.80;;;1.33;;
55784;SDS011;41709;52.536;5.688;2023-01-19T04:38:23;10.20;;;1.33;;
55784;SDS011;41709;52.536;5.688;2023-01-19T04:40:50;13.93;;;1.58;;
55784;SDS011;41709;52.536;5.688;2023-01-19T04:43:16;13.90;;;1.63;;
55784;SDS011;41709;52.536;5.688;2023-01-19T04:45:46;16.98;;;2.28;;
55784;SDS011;41709;52.536;5.688;2023-01-19T04:48:11;21.00;;;1.90;;
55784;SDS011;41709;52.536;5.688;2023-01-19T04:50:38;17.38;;;1.80;;
55784;SDS011;41709;52.536;5.688;2023-01-19T04:53:03;24.70;;;2.67;;
55784;SDS011;41709;52.536;5.688;2023-01-19T04:55:29;17.92;;;1.88;;
55784;SDS011;41709;52.536;5.688;2023-01-19T04:57:55;17.60;;;2.13;;
55784;SDS011;41709;52.536;5.688;2023-01-19T05:00:21;17.65;;;1.85;;
55784;SDS011;41709;52.536;5.688;2023-01-19T05:02:47;19.38;;;1.98;;
55784;SDS011;41709;52.536;5.688;2023-01-19T05:05:13;9.48;;;1.98;;
55784;SDS011;41709;52.536;5.688;2023-01-19T05:07:39;17.77;;;2.20;;
55784;SDS011;41709;52.536;5.688;2023-01-19T05:10:05;12.65;;;1.42;;
55784;SDS011;41709;52.536;5.688;2023-01-19T05:12:31;19.45;;;4.03;;
55784;SDS011;41709;52.536;5.688;2023-01-19T05:14:57;18.63;;;1.92;;
55784;SDS011;41709;52.536;5.688;2023-01-19T05:17:23;14.93;;;1.80;;
55784;SDS011;41709;52.536;5.688;2023-01-19T05:19:48;10.57;;;1.73;;
55784;SDS011;41709;52.536;5.688;2023-01-19T05:22:14;16.55;;;2.13;;
55784;SDS011;41709;52.536;5.688;2023-01-19T05:24:40;15.07;;;1.77;;
55784;SDS011;41709;52.536;5.688;2023-01-19T05:27:06;10.38;;;1.40;;
55784;SDS011;41709;52.536;5.688;2023-01-19T05:29:32;18.90;;;1.92;;
55784;SDS011;41709;52.536;5.688;2023-01-19T05:31:58;17.83;;;2.67;;
55784;SDS011;41709;52.536;5.688;2023-01-19T05:34:24;13.85;;;1.10;;
55784;SDS011;41709;52.536;5.688;2023-01-19T05:36:50;7.65;;;1.25;;
55784;SDS011;41709;52.536;5.688;2023-01-19T05:39:16;19.67;;;1.33;;
55784;SDS011;41709;52.536;5.688;2023-01-19T05:41:41;8.82;;;1.70;;
55784;SDS011;41709;52.536;5.688;2023-01-19T05:44:09;15.65;;;1.98;;
55784;SDS011;41709;52.536;5.688;2023-01-19T05:46:35;9.13;;;1.83;;
55784;SDS011;41709;52.536;5.688;2023-01-19T05:49:01;16.75;;;2.45;;
55784;SDS011;41709;52.536;5.688;2023-01-19T05:51:28;14.50;;;2.10;;
55784;SDS011;41709;52.536;5.688;2023-01-19T05:53:59;14.05;;;1.77;;
55784;SDS011;41709;52.536;5.688;2023-01-19T05:56:25;14.20;;;1.70;;
55784;SDS011;41709;52.536;5.688;2023-01-19T05:58:51;16.67;;;1.75;;
55784;SDS011;41709;52.536;5.688;2023-01-19T06:01:16;14.50;;;2.10;;
55784;SDS011;41709;52.536;5.688;2023-01-19T06:03:42;13.23;;;2.10;;
55784;SDS011;41709;52.536;5.688;2023-01-19T06:06:07;19.85;;;2.47;;
55784;SDS011;41709;52.536;5.688;2023-01-19T06:08:33;20.55;;;2.15;;
55784;SDS011;41709;52.536;5.688;2023-01-19T06:10:59;11.65;;;1.70;;
55784;SDS011;41709;52.536;5.688;2023-01-19T06:13:25;16.13;;;1.70;;
55784;SDS011;41709;52.536;5.688;2023-01-19T06:15:57;17.15;;;2.13;;
55784;SDS011;41709;52.536;5.688;2023-01-19T06:18:23;16.70;;;1.95;;
55784;SDS011;41709;52.536;5.688;2023-01-19T06:20:48;20.88;;;2.00;;
55784;SDS011;41709;52.536;5.688;2023-01-19T06:23:14;12.40;;;2.33;;
55784;SDS011;41709;52.536;5.688;2023-01-19T06:25:40;13.13;;;2.00;;
55784;SDS011;41709;52.536;5.688;2023-01-19T06:28:06;13.55;;;1.90;;
55784;SDS011;41709;52.536;5.688;2023-01-19T06:30:31;16.27;;;2.05;;
55784;SDS011;41709;52.536;5.688;2023-01-19T06:32:57;16.67;;;2.08;;
55784;SDS011;41709;52.536;5.688;2023-01-19T06:35:22;12.88;;;1.60;;
55784;SDS011;41709;52.536;5.688;2023-01-19T06:37:48;15.75;;;1.83;;
55784;SDS011;41709;52.536;5.688;2023-01-19T06:40:13;18.65;;;1.55;;
55784;SDS011;41709;52.536;5.688;2023-01-19T06:42:39;18.50;;;2.50;;
55784;SDS011;41709;52.536;5.688;2023-01-19T06:45:05;16.02;;;1.85;;
55784;SDS011;41709;52.536;5.688;2023-01-19T06:47:31;15.10;;;1.52;;
55784;SDS011;41709;52.536;5.688;2023-01-19T06:49:58;13.73;;;2.10;;
55784;SDS011;41709;52.536;5.688;2023-01-19T06:52:23;13.40;;;1.55;;
55784;SDS011;41709;52.536;5.688;2023-01-19T06:54:49;15.65;;;1.55;;
55784;SDS011;41709;52.536;5.688;2023-01-19T06:57:14;12.50;;;1.55;;
55784;SDS011;41709;52.536;5.688;2023-01-19T06:59:40;16.20;;;1.80;;
55784;SDS011;41709;52.536;5.688;2023-01-19T07:02:06;8.07;;;1.30;;
55784;SDS011;41709;52.536;5.688;2023-01-19T07:04:33;13.00;;;1.52;;
55784;SDS011;41709;52.536;5.688;2023-01-19T07:06:59;11.95;;;1.50;;
55784;SDS011;41709;52.536;5.688;2023-01-19T07:09:25;16.65;;;2.08;;
55784;SDS011;41709;52.536;5.688;2023-01-19T07:11:52;16.02;;;1.88;;
55784;SDS011;41709;52.536;5.688;2023-01-19T07:14:18;9.65;;;1.38;;
55784;SDS011;41709;52.536;5.688;2023-01-19T07:16:44;9.73;;;1.38;;
55784;SDS011;41709;52.536;5.688;2023-01-19T07:19:10;10.10;;;1.10;;
55784;SDS011;41709;52.536;5.688;2023-01-19T07:21:38;12.90;;;1.40;;
55784;SDS011;41709;52.536;5.688;2023-01-19T07:24:03;18.15;;;1.67;;
55784;SDS011;41709;52.536;5.688;2023-01-19T07:26:30;16.60;;;1.65;;
55784;SDS011;41709;52.536;5.688;2023-01-19T07:28:55;15.25;;;1.67;;
55784;SDS011;41709;52.536;5.688;2023-01-19T07:31:21;15.57;;;2.20;;
55784;SDS011;41709;52.536;5.688;2023-01-19T07:33:46;17.13;;;1.85;;
55784;SDS011;41709;52.536;5.688;2023-01-19T07:36:12;13.70;;;1.23;;
55784;SDS011;41709;52.536;5.688;2023-01-19T07:38:38;17.77;;;1.83;;
55784;SDS011;41709;52.536;5.688;2023-01-19T07:41:04;16.67;;;1.73;;
55784;SDS011;41709;52.536;5.688;2023-01-19T07:43:32;17.92;;;2.10;;
55784;SDS011;41709;52.536;5.688;2023-01-19T07:45:58;17.73;;;1.70;;
55784;SDS011;41709;52.536;5.688;2023-01-19T07:48:25;8.32;;;1.80;;
55784;SDS011;41709;52.536;5.688;2023-01-19T07:50:51;11.40;;;2.35;;
55784;SDS011;41709;52.536;5.688;2023-01-19T07:53:16;14.32;;;1.85;;
55784;SDS011;41709;52.536;5.688;2023-01-19T07:55:42;16.50;;;1.58;;
55784;SDS011;41709;52.536;5.688;2023-01-19T07:58:08;15.98;;;3.20;;
55784;SDS011;41709;52.536;5.688;2023-01-19T08:00:34;11.07;;;1.15;;
55784;SDS011;41709;52.536;5.688;2023-01-19T08:03:02;16.10;;;2.08;;
55784;SDS011;41709;52.536;5.688;2023-01-19T08:05:28;19.23;;;2.90;;
55784;SDS011;41709;52.536;5.688;2023-01-19T08:07:55;13.23;;;1.55;;
55784;SDS011;41709;52.536;5.688;2023-01-19T08:10:21;9.23;;;1.33;;
55784;SDS011;41709;52.536;5.688;2023-01-19T08:12:50;17.73;;;1.67;;
55784;SDS011;41709;52.536;5.688;2023-01-19T08:15:16;9.93;;;1.50;;
55784;SDS011;41709;52.536;5.688;2023-01-19T08:17:42;10.00;;;1.05;;
55784;SDS011;41709;52.536;5.688;2023-01-19T08:20:08;11.23;;;1.17;;
55784;SDS011;41709;52.536;5.688;2023-01-19T08:22:35;15.55;;;1.98;;
55784;SDS011;41709;52.536;5.688;2023-01-19T08:25:01;19.20;;;1.52;;
55784;SDS011;41709;52.536;5.688;2023-01-19T08:27:26;6.78;;;1.80;;
55784;SDS011;41709;52.536;5.688;2023-01-19T08:29:52;12.50;;;1.30;;
55784;SDS011;41709;52.536;5.688;2023-01-19T08:32:18;8.88;;;1.48;;
55784;SDS011;41709;52.536;5.688;2023-01-19T08:34:44;13.80;;;1.45;;
55784;SDS011;41709;52.536;5.688;2023-01-19T08:37:09;6.57;;;1.25;;
55784;SDS011;41709;52.536;5.688;2023-01-19T08:39:35;13.30;;;1.25;;
55784;SDS011;41709;52.536;5.688;2023-01-19T08:42:00;9.75;;;1.42;;
55784;SDS011;41709;52.536;5.688;2023-01-19T08:44:26;12.00;;;1.55;;
55784;SDS011;41709;52.536;5.688;2023-01-19T08:46:52;11.55;;;1.33;;
55784;SDS011;41709;52.536;5.688;2023-01-19T08:49:18;11.60;;;1.10;;
55784;SDS011;41709;52.536;5.688;2023-01-19T08:51:43;12.95;;;1.58;;
55784;SDS011;41709;52.536;5.688;2023-01-19T08:54:13;10.52;;;1.95;;
55784;SDS011;41709;52.536;5.688;2023-01-19T08:56:40;10.98;;;1.50;;
55784;SDS011;41709;52.536;5.688;2023-01-19T08:59:06;14.93;;;1.60;;
55784;SDS011;41709;52.536;5.688;2023-01-19T09:01:32;20.08;;;1.75;;
55784;SDS011;41709;52.536;5.688;2023-01-19T09:03:57;15.60;;;1.48;;
55784;SDS011;41709;52.536;5.688;2023-01-19T09:06:23;9.98;;;1.33;;
55784;SDS011;41709;52.536;5.688;2023-01-19T09:08:49;11.75;;;1.33;;
55784;SDS011;41709;52.536;5.688;2023-01-19T09:11:15;10.52;;;1.05;;
55784;SDS011;41709;52.536;5.688;2023-01-19T09:13:41;19.80;;;1.40;;
55784;SDS011;41709;52.536;5.688;2023-01-19T09:16:07;11.48;;;1.55;;
55784;SDS011;41709;52.536;5.688;2023-01-19T09:18:33;10.75;;;1.85;;
55784;SDS011;41709;52.536;5.688;2023-01-19T09:21:00;13.20;;;1.23;;
55784;SDS011;41709;52.536;5.688;2023-01-19T09:23:26;7.85;;;1.17;;
55784;SDS011;41709;52.536;5.688;2023-01-19T09:25:56;12.88;;;2.00;;
55784;SDS011;41709;52.536;5.688;2023-01-19T09:28:23;10.85;;;1.23;;
55784;SDS011;41709;52.536;5.688;2023-01-19T09:30:49;21.17;;;3.15;;
55784;SDS011;41709;52.536;5.688;2023-01-19T09:33:16;13.07;;;1.40;;
55784;SDS011;41709;52.536;5.688;2023-01-19T09:35:43;7.50;;;1.58;;
55784;SDS011;41709;52.536;5.688;2023-01-19T09:38:09;17.77;;;2.17;;
55784;SDS011;41709;52.536;5.688;2023-01-19T09:40:36;13.70;;;1.30;;
55784;SDS011;41709;52.536;5.688;2023-01-19T09:43:12;15.68;;;1.58;;
55784;SDS011;41709;52.536;5.688;2023-01-19T09:45:47;11.52;;;1.30;;
55784;SDS011;41709;52.536;5.688;2023-01-19T09:51:05;14.18;;;1.38;;
55784;SDS011;41709;52.536;5.688;2023-01-19T09:56:16;13.20;;;1.67;;
55784;SDS011;41709;52.536;5.688;2023-01-19T09:58:46;8.30;;;0.85;;
55784;SDS011;41709;52.536;5.688;2023-01-19T10:04:07;6.85;;;1.20;;
55784;SDS011;41709;52.536;5.688;2023-01-19T10:06:36;10.10;;;1.33;;
55784;SDS011;41709;52.536;5.688;2023-01-19T10:09:06;6.22;;;0.90;;
55784;SDS011;41709;52.536;5.688;2023-01-19T10:14:14;17.58;;;1.52;;
55784;SDS011;41709;52.536;5.688;2023-01-19T10:19:25;5.50;;;0.93;;
55784;SDS011;41709;52.536;5.688;2023-01-19T10:21:54;6.60;;;0.93;;
55784;SDS011;41709;52.536;5.688;2023-01-19T10:24:27;8.02;;;0.95;;
55784;SDS011;41709;52.536;5.688;2023-01-19T10:26:54;10.50;;;1.55;;
55784;SDS011;41709;52.536;5.688;2023-01-19T10:29:33;11.77;;;0.90;;
55784;SDS011;41709;52.536;5.688;2023-01-19T10:32:08;11.50;;;1.02;;
55784;SDS011;41709;52.536;5.688;2023-01-19T10:34:37;5.68;;;0.90;;
55784;SDS011;41709;52.536;5.688;2023-01-19T10:37:04;9.82;;;0.85;;
55784;SDS011;41709;52.536;5.688;2023-01-19T10:39:41;5.35;;;1.33;;
55784;SDS011;41709;52.536;5.688;2023-01-19T10:42:09;10.75;;;2.53;;
55784;SDS011;41709;52.536;5.688;2023-01-19T10:44:39;8.65;;;0.93;;
55784;SDS011;41709;52.536;5.688;2023-01-19T10:47:05;12.48;;;1.40;;
55784;SDS011;41709;52.536;5.688;2023-01-19T10:49:44;11.27;;;1.00;;
55784;SDS011;41709;52.536;5.688;2023-01-19T10:54:57;15.70;;;0.93;;
55784;SDS011;41709;52.536;5.688;2023-01-19T10:57:26;6.95;;;0.77;;
55784;SDS011;41709;52.536;5.688;2023-01-19T10:59:55;5.95;;;0.68;;
55784;SDS011;41709;52.536;5.688;2023-01-19T11:02:26;9.13;;;1.13;;
55784;SDS011;41709;52.536;5.688;2023-01-19T11:04:59;7.47;;;0.93;;
55784;SDS011;41709;52.536;5.688;2023-01-19T11:07:44;6.00;;;0.80;;
55784;SDS011;41709;52.536;5.688;2023-01-19T11:12:54;8.63;;;1.30;;
55784;SDS011;41709;52.536;5.688;2023-01-19T11:15:28;8.45;;;1.05;;
55784;SDS011;41709;52.536;5.688;2023-01-19T11:17:54;6.45;;;1.25;;
55784;SDS011;41709;52.536;5.688;2023-01-19T11:20:21;8.93;;;1.30;;
55784;SDS011;41709;52.536;5.688;2023-01-19T11:23:03;6.00;;;0.85;;
55784;SDS011;41709;52.536;5.688;2023-01-19T11:25:40;6.28;;;1.00;;
55784;SDS011;41709;52.536;5.688;2023-01-19T11:28:17;10.02;;;1.52;;
55784;SDS011;41709;52.536;5.688;2023-01-19T11:30:53;6.10;;;1.13;;
55784;SDS011;41709;52.536;5.688;2023-01-19T11:33:24;9.05;;;0.90;;
55784;SDS011;41709;52.536;5.688;2023-01-19T11:36:39;7.25;;;1.10;;
55784;SDS011;41709;52.536;5.688;2023-01-19T11:38:59;7.55;;;0.80;;
55784;SDS011;41709;52.536;5.688;2023-01-19T11:41:44;7.72;;;0.85;;
55784;SDS011;41709;52.536;5.688;2023-01-19T11:44:20;9.23;;;1.23;;
55784;SDS011;41709;52.536;5.688;2023-01-19T11:46:50;13.70;;;2.42;;
55784;SDS011;41709;52.536;5.688;2023-01-19T11:51:58;11.00;;;1.20;;
55784;SDS011;41709;52.536;5.688;2023-01-19T11:54:30;4.03;;;1.45;;
55784;SDS011;41709;52.536;5.688;2023-01-19T11:57:00;3.22;;;0.70;;
55784;SDS011;41709;52.536;5.688;2023-01-19T11:59:27;9.82;;;1.25;;
55784;SDS011;41709;52.536;5.688;2023-01-19T12:01:57;9.15;;;1.30;;
55784;SDS011;41709;52.536;5.688;2023-01-19T12:04:26;6.65;;;0.98;;
55784;SDS011;41709;52.536;5.688;2023-01-19T12:06:56;6.93;;;0.60;;
55784;SDS011;41709;52.536;5.688;2023-01-19T12:09:26;3.85;;;0.52;;
55784;SDS011;41709;52.536;5.688;2023-01-19T12:12:00;5.78;;;2.65;;
55784;SDS011;41709;52.536;5.688;2023-01-19T12:14:40;3.88;;;1.05;;
55784;SDS011;41709;52.536;5.688;2023-01-19T12:17:33;5.57;;;1.55;;
55784;SDS011;41709;52.536;5.688;2023-01-19T12:22:51;5.60;;;0.77;;
55784;SDS011;41709;52.536;5.688;2023-01-19T12:25:42;4.82;;;0.77;;
55784;SDS011;41709;52.536;5.688;2023-01-19T12:28:31;6.18;;;0.55;;
55784;SDS011;41709;52.536;5.688;2023-01-19T12:31:01;3.28;;;0.85;;
55784;SDS011;41709;52.536;5.688;2023-01-19T12:35:59;10.18;;;1.05;;
55784;SDS011;41709;52.536;5.688;2023-01-19T12:41:15;4.05;;;0.68;;
55784;SDS011;41709;52.536;5.688;2023-01-19T12:43:41;7.03;;;1.08;;
55784;SDS011;41709;52.536;5.688;2023-01-19T12:48:54;5.95;;;0.90;;
55784;SDS011;41709;52.536;5.688;2023-01-19T12:51:34;8.40;;;2.08;;
55784;SDS011;41709;52.536;5.688;2023-01-19T12:54:00;10.38;;;1.00;;
55784;SDS011;41709;52.536;5.688;2023-01-19T12:56:31;4.45;;;0.63;;
55784;SDS011;41709;52.536;5.688;2023-01-19T12:58:59;8.20;;;0.82;;
55784;SDS011;41709;52.536;5.688;2023-01-19T13:01:26;7.35;;;1.20;;
55784;SDS011;41709;52.536;5.688;2023-01-19T13:04:04;9.07;;;0.80;;
55784;SDS011;41709;52.536;5.688;2023-01-19T13:09:32;8.23;;;0.90;;
55784;SDS011;41709;52.536;5.688;2023-01-19T13:14:47;5.50;;;0.90;;
55784;SDS011;41709;52.536;5.688;2023-01-19T13:17:25;4.65;;;0.73;;
55784;SDS011;41709;52.536;5.688;2023-01-19T13:19:52;2.00;;;0.52;;
55784;SDS011;41709;52.536;5.688;2023-01-19T13:22:51;7.47;;;1.00;;
55784;SDS011;41709;52.536;5.688;2023-01-19T13:25:25;6.47;;;0.63;;
55784;SDS011;41709;52.536;5.688;2023-01-19T13:27:54;3.97;;;0.73;;
55784;SDS011;41709;52.536;5.688;2023-01-19T13:30:21;3.10;;;0.85;;
55784;SDS011;41709;52.536;5.688;2023-01-19T13:32:51;4.05;;;1.50;;
55784;SDS011;41709;52.536;5.688;2023-01-19T13:35:21;8.05;;;0.70;;
55784;SDS011;41709;52.536;5.688;2023-01-19T13:37:47;7.25;;;0.70;;
55784;SDS011;41709;52.536;5.688;2023-01-19T13:40:19;5.80;;;0.70;;
55784;SDS011;41709;52.536;5.688;2023-01-19T13:42:48;8.90;;;0.77;;
55784;SDS011;41709;52.536;5.688;2023-01-19T13:45:31;7.22;;;0.82;;
55784;SDS011;41709;52.536;5.688;2023-01-19T13:48:03;5.57;;;0.88;;
55784;SDS011;41709;52.536;5.688;2023-01-19T13:50:33;7.30;;;1.77;;
55784;SDS011;41709;52.536;5.688;2023-01-19T13:53:01;4.90;;;0.77;;
55784;SDS011;41709;52.536;5.688;2023-01-19T13:55:29;3.97;;;0.70;;
55784;SDS011;41709;52.536;5.688;2023-01-19T13:57:55;6.75;;;1.08;;
55784;SDS011;41709;52.536;5.688;2023-01-19T14:00:27;5.53;;;1.02;;
55784;SDS011;41709;52.536;5.688;2023-01-19T14:02:58;4.85;;;0.68;;
55784;SDS011;41709;52.536;5.688;2023-01-19T14:05:48;3.38;;;1.00;;
55784;SDS011;41709;52.536;5.688;2023-01-19T14:08:15;3.70;;;1.13;;
55784;SDS011;41709;52.536;5.688;2023-01-19T14:15:59;3.70;;;1.00;;
55784;SDS011;41709;52.536;5.688;2023-01-19T14:18:30;5.55;;;0.60;;
55784;SDS011;41709;52.536;5.688;2023-01-19T14:21:00;6.72;;;1.90;;
55784;SDS011;41709;52.536;5.688;2023-01-19T14:29:28;7.82;;;1.48;;
55784;SDS011;41709;52.536;5.688;2023-01-19T14:37:25;7.13;;;1.17;;
55784;SDS011;41709;52.536;5.688;2023-01-19T14:45:18;5.32;;;0.70;;
55784;SDS011;41709;52.536;5.688;2023-01-19T14:47:45;3.22;;;0.50;;
55784;SDS011;41709;52.536;5.688;2023-01-19T14:50:24;6.20;;;0.50;;
55784;SDS011;41709;52.536;5.688;2023-01-19T14:52:58;2.80;;;0.40;;
55784;SDS011;41709;52.536;5.688;2023-01-19T14:55:42;7.53;;;0.90;;
55784;SDS011;41709;52.536;5.688;2023-01-19T14:58:14;4.22;;;0.90;;
55784;SDS011;41709;52.536;5.688;2023-01-19T15:00:41;5.53;;;1.10;;
55784;SDS011;41709;52.536;5.688;2023-01-19T15:03:07;5.55;;;0.90;;
55784;SDS011;41709;52.536;5.688;2023-01-19T15:05:36;4.05;;;1.33;;
55784;SDS011;41709;52.536;5.688;2023-01-19T15:08:14;5.60;;;0.98;;
55784;SDS011;41709;52.536;5.688;2023-01-19T15:10:46;3.83;;;0.70;;
55784;SDS011;41709;52.536;5.688;2023-01-19T15:13:16;5.45;;;0.80;;
55784;SDS011;41709;52.536;5.688;2023-01-19T15:15:44;4.70;;;0.85;;
55784;SDS011;41709;52.536;5.688;2023-01-19T15:18:12;8.15;;;0.98;;
55784;SDS011;41709;52.536;5.688;2023-01-19T15:20:41;4.57;;;1.25;;
55784;SDS011;41709;52.536;5.688;2023-01-19T15:23:08;3.55;;;0.60;;
55784;SDS011;41709;52.536;5.688;2023-01-19T15:25:34;4.10;;;0.77;;
55784;SDS011;41709;52.536;5.688;2023-01-19T15:28:00;6.63;;;0.90;;
55784;SDS011;41709;52.536;5.688;2023-01-19T15:30:26;8.80;;;1.65;;
55784;SDS011;41709;52.536;5.688;2023-01-19T15:32:57;5.90;;;0.85;;
55784;SDS011;41709;52.536;5.688;2023-01-19T15:35:23;3.65;;;0.60;;
55784;SDS011;41709;52.536;5.688;2023-01-19T15:37:53;3.10;;;0.60;;
55784;SDS011;41709;52.536;5.688;2023-01-19T15:40:19;7.30;;;0.93;;
55784;SDS011;41709;52.536;5.688;2023-01-19T15:42:46;4.75;;;0.80;;
55784;SDS011;41709;52.536;5.688;2023-01-19T15:48:05;4.43;;;1.05;;
55784;SDS011;41709;52.536;5.688;2023-01-19T15:50:33;13.80;;;1.13;;
55784;SDS011;41709;52.536;5.688;2023-01-19T15:53:01;5.18;;;0.90;;
55784;SDS011;41709;52.536;5.688;2023-01-19T15:55:27;6.18;;;1.00;;
55784;SDS011;41709;52.536;5.688;2023-01-19T15:57:53;6.03;;;1.10;;
55784;SDS011;41709;52.536;5.688;2023-01-19T16:00:22;8.98;;;1.20;;